sensor_id;sensor_type;location;lat;lon;timestamp;pressure;altitude;pressure_sealevel;temperature;humidity
74062;BME280;62416;47.560;7.778;2022-07-23T00:00:44;98458.13;;;22.61;76.22
74062;BME280;62416;47.560;7.778;2022-07-23T00:03:09;98449.50;;;22.70;76.09
74062;BME280;62416;47.560;7.778;2022-07-23T00:05:35;98450.34;;;22.38;77.59
74062;BME280;62416;47.560;7.778;2022-07-23T00:08:01;98450.56;;;22.89;74.55
74062;BME280;62416;47.560;7.778;2022-07-23T00:10:26;98457.69;;;22.50;75.45
74062;BME280;62416;47.560;7.778;2022-07-23T00:12:52;98454.75;;;22.65;74.09
74062;BME280;62416;47.560;7.778;2022-07-23T00:15:17;98463.34;;;22.69;74.30
74062;BME280;62416;47.560;7.778;2022-07-23T00:17:42;98473.22;;;22.63;74.25
74062;BME280;62416;47.560;7.778;2022-07-23T00:20:08;98480.13;;;22.66;73.57
74062;BME280;62416;47.560;7.778;2022-07-23T00:22:33;98478.66;;;22.63;74.68
74062;BME280;62416;47.560;7.778;2022-07-23T00:24:59;98470.69;;;22.55;74.99
74062;BME280;62416;47.560;7.778;2022-07-23T00:27:24;98467.75;;;22.43;75.27
74062;BME280;62416;47.560;7.778;2022-07-23T00:29:50;98463.56;;;22.61;75.21
74062;BME280;62416;47.560;7.778;2022-07-23T00:32:15;98476.38;;;22.53;74.86
74062;BME280;62416;47.560;7.778;2022-07-23T00:34:41;98480.09;;;23.05;73.05
74062;BME280;62416;47.560;7.778;2022-07-23T00:37:06;98483.19;;;23.16;72.41
74062;BME280;62416;47.560;7.778;2022-07-23T00:39:31;98479.69;;;22.95;73.45
74062;BME280;62416;47.560;7.778;2022-07-23T00:41:57;98466.28;;;22.87;73.95
74062;BME280;62416;47.560;7.778;2022-07-23T00:44:27;98456.66;;;22.45;77.76
74062;BME280;62416;47.560;7.778;2022-07-23T00:46:55;98448.06;;;22.41;78.15
74062;BME280;62416;47.560;7.778;2022-07-23T00:49:23;98446.34;;;22.67;76.88
74062;BME280;62416;47.560;7.778;2022-07-23T00:51:49;98444.66;;;22.66;77.39
74062;BME280;62416;47.560;7.778;2022-07-23T00:54:15;98460.03;;;22.47;76.42
74062;BME280;62416;47.560;7.778;2022-07-23T00:56:43;98459.19;;;22.53;77.20
74062;BME280;62416;47.560;7.778;2022-07-23T00:59:08;98456.63;;;22.58;76.56
74062;BME280;62416;47.560;7.778;2022-07-23T01:01:34;98448.88;;;22.68;76.71
74062;BME280;62416;47.560;7.778;2022-07-23T01:03:59;98450.97;;;22.60;76.66
74062;BME280;62416;47.560;7.778;2022-07-23T01:06:25;98447.84;;;22.63;76.36
74062;BME280;62416;47.560;7.778;2022-07-23T01:08:50;98449.72;;;22.55;74.68
74062;BME280;62416;47.560;7.778;2022-07-23T01:11:17;98467.31;;;22.73;74.12
74062;BME280;62416;47.560;7.778;2022-07-23T01:13:43;98467.06;;;23.07;74.43
74062;BME280;62416;47.560;7.778;2022-07-23T01:16:09;98428.53;;;22.57;76.20
74062;BME280;62416;47.560;7.778;2022-07-23T01:18:34;98411.13;;;22.52;75.78
74062;BME280;62416;47.560;7.778;2022-07-23T01:21:00;98390.22;;;22.26;75.83
74062;BME280;62416;47.560;7.778;2022-07-23T01:23:25;98390.97;;;22.79;73.39
74062;BME280;62416;47.560;7.778;2022-07-23T01:25:55;98381.56;;;22.69;73.46
74062;BME280;62416;47.560;7.778;2022-07-23T01:28:22;98402.50;;;22.88;73.51
74062;BME280;62416;47.560;7.778;2022-07-23T01:30:48;98411.69;;;23.00;70.96
74062;BME280;62416;47.560;7.778;2022-07-23T01:33:14;98416.09;;;23.01;70.25
74062;BME280;62416;47.560;7.778;2022-07-23T01:35:39;98417.41;;;22.59;73.57
74062;BME280;62416;47.560;7.778;2022-07-23T01:38:06;98417.47;;;22.26;74.51
74062;BME280;62416;47.560;7.778;2022-07-23T01:40:31;98420.81;;;22.41;72.47
74062;BME280;62416;47.560;7.778;2022-07-23T01:42:57;98426.84;;;22.70;71.00
74062;BME280;62416;47.560;7.778;2022-07-23T01:45:22;98426.25;;;22.68;70.02
74062;BME280;62416;47.560;7.778;2022-07-23T01:47:50;98437.34;;;22.60;69.64
74062;BME280;62416;47.560;7.778;2022-07-23T01:50:15;98442.59;;;22.61;69.85
74062;BME280;62416;47.560;7.778;2022-07-23T01:52:44;98439.22;;;22.72;70.01
74062;BME280;62416;47.560;7.778;2022-07-23T01:55:09;98448.00;;;22.94;68.04
74062;BME280;62416;47.560;7.778;2022-07-23T01:57:38;98459.69;;;23.15;68.20
74062;BME280;62416;47.560;7.778;2022-07-23T02:00:04;98457.44;;;22.78;67.63
74062;BME280;62416;47.560;7.778;2022-07-23T02:02:38;98448.44;;;22.71;67.55
74062;BME280;62416;47.560;7.778;2022-07-23T02:05:04;98446.78;;;22.64;68.48
74062;BME280;62416;47.560;7.778;2022-07-23T02:07:29;98431.25;;;22.71;67.89
74062;BME280;62416;47.560;7.778;2022-07-23T02:09:54;98436.94;;;22.69;68.36
74062;BME280;62416;47.560;7.778;2022-07-23T02:12:20;98421.44;;;22.43;68.92
74062;BME280;62416;47.560;7.778;2022-07-23T02:14:45;98424.16;;;22.56;68.63
74062;BME280;62416;47.560;7.778;2022-07-23T02:17:11;98427.53;;;22.45;67.93
74062;BME280;62416;47.560;7.778;2022-07-23T02:19:36;98440.50;;;22.56;67.73
74062;BME280;62416;47.560;7.778;2022-07-23T02:22:02;98441.38;;;22.24;70.24
74062;BME280;62416;47.560;7.778;2022-07-23T02:24:27;98441.78;;;22.47;70.01
74062;BME280;62416;47.560;7.778;2022-07-23T02:26:52;98453.94;;;22.38;70.62
74062;BME280;62416;47.560;7.778;2022-07-23T02:29:18;98452.63;;;22.87;68.50
74062;BME280;62416;47.560;7.778;2022-07-23T02:31:43;98456.22;;;22.61;69.80
74062;BME280;62416;47.560;7.778;2022-07-23T02:34:09;98452.28;;;22.24;71.36
74062;BME280;62416;47.560;7.778;2022-07-23T02:36:37;98455.41;;;22.61;70.89
74062;BME280;62416;47.560;7.778;2022-07-23T02:39:03;98455.19;;;22.29;72.00
74062;BME280;62416;47.560;7.778;2022-07-23T02:41:30;98451.97;;;21.92;72.85
74062;BME280;62416;47.560;7.778;2022-07-23T02:43:55;98456.44;;;22.20;72.53
74062;BME280;62416;47.560;7.778;2022-07-23T02:46:21;98449.06;;;22.00;71.91
74062;BME280;62416;47.560;7.778;2022-07-23T02:48:47;98445.13;;;22.10;72.48
74062;BME280;62416;47.560;7.778;2022-07-23T02:51:13;98439.47;;;22.44;70.48
74062;BME280;62416;47.560;7.778;2022-07-23T02:53:41;98429.22;;;22.33;70.04
74062;BME280;62416;47.560;7.778;2022-07-23T02:56:07;98432.56;;;22.35;69.35
74062;BME280;62416;47.560;7.778;2022-07-23T02:58:33;98463.34;;;22.69;68.58
74062;BME280;62416;47.560;7.778;2022-07-23T03:01:00;98515.56;;;22.92;67.63
74062;BME280;62416;47.560;7.778;2022-07-23T03:03:25;98564.63;;;22.79;69.35
74062;BME280;62416;47.560;7.778;2022-07-23T03:05:51;98593.56;;;22.80;69.23
74062;BME280;62416;47.560;7.778;2022-07-23T03:08:16;98576.75;;;22.37;72.45
74062;BME280;62416;47.560;7.778;2022-07-23T03:10:46;98545.41;;;21.99;75.41
74062;BME280;62416;47.560;7.778;2022-07-23T03:13:12;98531.19;;;21.97;75.19
74062;BME280;62416;47.560;7.778;2022-07-23T03:15:37;98512.53;;;21.88;75.58
74062;BME280;62416;47.560;7.778;2022-07-23T03:18:03;98486.13;;;21.88;75.86
74062;BME280;62416;47.560;7.778;2022-07-23T03:20:28;98486.47;;;21.65;77.45
74062;BME280;62416;47.560;7.778;2022-07-23T03:22:54;98494.97;;;22.03;76.71
74062;BME280;62416;47.560;7.778;2022-07-23T03:25:19;98504.81;;;21.50;77.63
74062;BME280;62416;47.560;7.778;2022-07-23T03:27:46;98518.78;;;21.82;77.45
74062;BME280;62416;47.560;7.778;2022-07-23T03:30:11;98537.25;;;21.99;74.28
74062;BME280;62416;47.560;7.778;2022-07-23T03:32:37;98548.38;;;22.05;75.10
74062;BME280;62416;47.560;7.778;2022-07-23T03:35:03;98564.28;;;21.46;77.33
74062;BME280;62416;47.560;7.778;2022-07-23T03:37:30;98585.47;;;22.06;75.22
74062;BME280;62416;47.560;7.778;2022-07-23T03:39:57;98599.16;;;22.19;75.06
74062;BME280;62416;47.560;7.778;2022-07-23T03:42:22;98593.72;;;22.19;75.15
74062;BME280;62416;47.560;7.778;2022-07-23T03:44:48;98585.31;;;21.66;78.38
74062;BME280;62416;47.560;7.778;2022-07-23T03:47:13;98557.13;;;21.39;78.98
74062;BME280;62416;47.560;7.778;2022-07-23T03:49:38;98531.44;;;21.20;80.17
74062;BME280;62416;47.560;7.778;2022-07-23T03:52:04;98501.94;;;20.82;80.58
74062;BME280;62416;47.560;7.778;2022-07-23T03:54:30;98489.38;;;20.81;80.37
74062;BME280;62416;47.560;7.778;2022-07-23T03:56:55;98479.50;;;20.74;81.65
74062;BME280;62416;47.560;7.778;2022-07-23T03:59:20;98468.75;;;20.93;80.26
74062;BME280;62416;47.560;7.778;2022-07-23T04:01:46;98466.50;;;21.04;80.27
74062;BME280;62416;47.560;7.778;2022-07-23T04:04:11;98463.06;;;20.88;80.71
74062;BME280;62416;47.560;7.778;2022-07-23T04:06:39;98470.25;;;21.37;79.19
74062;BME280;62416;47.560;7.778;2022-07-23T04:09:04;98485.66;;;21.71;78.84
74062;BME280;62416;47.560;7.778;2022-07-23T04:11:31;98508.25;;;21.59;78.64
74062;BME280;62416;47.560;7.778;2022-07-23T04:13:57;98507.06;;;21.81;76.86
74062;BME280;62416;47.560;7.778;2022-07-23T04:16:22;98526.00;;;21.20;79.51
74062;BME280;62416;47.560;7.778;2022-07-23T04:18:48;98530.00;;;20.89;80.77
74062;BME280;62416;47.560;7.778;2022-07-23T04:21:19;98529.84;;;20.98;80.46
74062;BME280;62416;47.560;7.778;2022-07-23T04:23:45;98541.97;;;20.67;81.40
74062;BME280;62416;47.560;7.778;2022-07-23T04:26:12;98536.75;;;21.00;80.19
74062;BME280;62416;47.560;7.778;2022-07-23T04:28:38;98540.72;;;20.70;82.03
74062;BME280;62416;47.560;7.778;2022-07-23T04:31:03;98536.91;;;20.64;81.83
74062;BME280;62416;47.560;7.778;2022-07-23T04:33:30;98536.31;;;20.69;82.13
74062;BME280;62416;47.560;7.778;2022-07-23T04:35:57;98545.56;;;20.74;81.54
74062;BME280;62416;47.560;7.778;2022-07-23T04:38:23;98544.03;;;20.65;82.00
74062;BME280;62416;47.560;7.778;2022-07-23T04:40:51;98540.78;;;20.76;81.26
74062;BME280;62416;47.560;7.778;2022-07-23T04:43:16;98537.16;;;20.69;81.72
74062;BME280;62416;47.560;7.778;2022-07-23T04:45:49;98537.09;;;20.62;81.64
74062;BME280;62416;47.560;7.778;2022-07-23T04:48:14;98547.63;;;21.00;78.45
74062;BME280;62416;47.560;7.778;2022-07-23T04:50:40;98553.72;;;21.30;78.52
74062;BME280;62416;47.560;7.778;2022-07-23T04:53:13;98549.25;;;21.57;79.39
74062;BME280;62416;47.560;7.778;2022-07-23T04:55:40;98555.41;;;21.31;81.08
74062;BME280;62416;47.560;7.778;2022-07-23T04:58:05;98558.09;;;21.66;78.13
74062;BME280;62416;47.560;7.778;2022-07-23T05:00:30;98562.56;;;21.80;78.00
74062;BME280;62416;47.560;7.778;2022-07-23T05:02:56;98557.47;;;21.29;79.83
74062;BME280;62416;47.560;7.778;2022-07-23T05:05:21;98555.41;;;21.31;80.38
74062;BME280;62416;47.560;7.778;2022-07-23T05:07:47;98544.97;;;21.41;80.26
74062;BME280;62416;47.560;7.778;2022-07-23T05:10:12;98527.25;;;21.17;79.66
74062;BME280;62416;47.560;7.778;2022-07-23T05:12:38;98534.78;;;21.22;79.61
74062;BME280;62416;47.560;7.778;2022-07-23T05:15:04;98544.91;;;21.28;79.34
74062;BME280;62416;47.560;7.778;2022-07-23T05:17:29;98543.75;;;21.44;77.48
74062;BME280;62416;47.560;7.778;2022-07-23T05:19:55;98543.88;;;21.77;77.13
74062;BME280;62416;47.560;7.778;2022-07-23T05:22:20;98555.25;;;21.94;74.54
74062;BME280;62416;47.560;7.778;2022-07-23T05:24:46;98554.38;;;21.80;76.79
74062;BME280;62416;47.560;7.778;2022-07-23T05:27:12;98567.44;;;22.05;75.88
74062;BME280;62416;47.560;7.778;2022-07-23T05:29:37;98575.47;;;22.13;74.27
74062;BME280;62416;47.560;7.778;2022-07-23T05:32:03;98571.47;;;22.15;74.91
74062;BME280;62416;47.560;7.778;2022-07-23T05:34:30;98577.19;;;22.40;74.44
74062;BME280;62416;47.560;7.778;2022-07-23T05:36:56;98564.06;;;21.96;76.16
74062;BME280;62416;47.560;7.778;2022-07-23T05:39:22;98574.09;;;21.89;76.78
74062;BME280;62416;47.560;7.778;2022-07-23T05:41:47;98579.72;;;21.87;76.22
74062;BME280;62416;47.560;7.778;2022-07-23T05:44:12;98582.63;;;22.27;74.98
74062;BME280;62416;47.560;7.778;2022-07-23T05:46:40;98600.41;;;22.16;75.33
74062;BME280;62416;47.560;7.778;2022-07-23T05:49:08;98599.38;;;22.24;75.18
74062;BME280;62416;47.560;7.778;2022-07-23T05:52:03;98584.47;;;21.72;76.82
74062;BME280;62416;47.560;7.778;2022-07-23T05:54:41;98577.72;;;21.55;78.34
74062;BME280;62416;47.560;7.778;2022-07-23T06:00:04;98576.50;;;21.29;79.42
74062;BME280;62416;47.560;7.778;2022-07-23T06:02:39;98580.94;;;21.30;79.33
74062;BME280;62416;47.560;7.778;2022-07-23T06:05:06;98586.34;;;21.65;77.89
74062;BME280;62416;47.560;7.778;2022-07-23T06:07:33;98589.00;;;21.52;78.27
74062;BME280;62416;47.560;7.778;2022-07-23T06:09:59;98594.03;;;21.55;77.56
74062;BME280;62416;47.560;7.778;2022-07-23T06:12:24;98594.38;;;21.38;78.04
74062;BME280;62416;47.560;7.778;2022-07-23T06:14:50;98596.44;;;21.36;78.54
74062;BME280;62416;47.560;7.778;2022-07-23T06:17:17;98600.66;;;21.39;77.38
74062;BME280;62416;47.560;7.778;2022-07-23T06:19:43;98604.84;;;21.41;77.59
74062;BME280;62416;47.560;7.778;2022-07-23T06:22:08;98597.88;;;21.67;77.80
74062;BME280;62416;47.560;7.778;2022-07-23T06:24:35;98598.25;;;21.64;77.28
74062;BME280;62416;47.560;7.778;2022-07-23T06:27:00;98607.13;;;21.79;77.44
74062;BME280;62416;47.560;7.778;2022-07-23T06:29:25;98614.25;;;21.73;78.13
74062;BME280;62416;47.560;7.778;2022-07-23T06:31:51;98600.88;;;21.85;75.65
74062;BME280;62416;47.560;7.778;2022-07-23T06:34:16;98618.78;;;22.08;76.43
74062;BME280;62416;47.560;7.778;2022-07-23T06:36:42;98618.50;;;21.89;76.62
74062;BME280;62416;47.560;7.778;2022-07-23T06:39:07;98628.97;;;21.92;74.85
74062;BME280;62416;47.560;7.778;2022-07-23T06:41:33;98629.84;;;21.99;75.95
74062;BME280;62416;47.560;7.778;2022-07-23T06:43:59;98632.69;;;21.78;77.42
74062;BME280;62416;47.560;7.778;2022-07-23T06:46:24;98642.31;;;22.22;76.46
74062;BME280;62416;47.560;7.778;2022-07-23T06:48:50;98645.47;;;22.19;75.54
74062;BME280;62416;47.560;7.778;2022-07-23T06:51:16;98645.84;;;22.16;76.24
74062;BME280;62416;47.560;7.778;2022-07-23T06:53:41;98654.72;;;22.24;75.19
74062;BME280;62416;47.560;7.778;2022-07-23T06:56:08;98661.06;;;22.38;76.31
74062;BME280;62416;47.560;7.778;2022-07-23T06:58:33;98652.66;;;22.33;76.99
74062;BME280;62416;47.560;7.778;2022-07-23T07:00:59;98662.69;;;22.26;77.97
74062;BME280;62416;47.560;7.778;2022-07-23T07:03:24;98656.03;;;22.48;77.42
74062;BME280;62416;47.560;7.778;2022-07-23T07:05:50;98662.00;;;22.11;77.55
74062;BME280;62416;47.560;7.778;2022-07-23T07:08:15;98653.00;;;22.17;77.79
74062;BME280;62416;47.560;7.778;2022-07-23T07:10:41;98648.84;;;22.27;76.93
74062;BME280;62416;47.560;7.778;2022-07-23T07:13:06;98643.00;;;22.37;76.49
74062;BME280;62416;47.560;7.778;2022-07-23T07:15:32;98651.63;;;22.47;76.25
74062;BME280;62416;47.560;7.778;2022-07-23T07:17:57;98653.53;;;22.53;76.04
74062;BME280;62416;47.560;7.778;2022-07-23T07:20:22;98644.75;;;22.78;74.53
74062;BME280;62416;47.560;7.778;2022-07-23T07:22:49;98654.06;;;22.90;74.48
74062;BME280;62416;47.560;7.778;2022-07-23T07:25:14;98642.72;;;23.06;74.20
74062;BME280;62416;47.560;7.778;2022-07-23T07:27:39;98656.16;;;23.15;74.49
74062;BME280;62416;47.560;7.778;2022-07-23T07:30:06;98654.25;;;22.95;73.28
74062;BME280;62416;47.560;7.778;2022-07-23T07:32:31;98662.88;;;22.99;73.37
74062;BME280;62416;47.560;7.778;2022-07-23T07:35:04;98668.31;;;22.92;72.56
74062;BME280;62416;47.560;7.778;2022-07-23T07:37:30;98667.88;;;23.55;71.65
74062;BME280;62416;47.560;7.778;2022-07-23T07:39:55;98668.31;;;23.32;72.71
74062;BME280;62416;47.560;7.778;2022-07-23T07:42:20;98661.38;;;23.36;73.05
74062;BME280;62416;47.560;7.778;2022-07-23T07:44:46;98669.94;;;23.59;71.35
74062;BME280;62416;47.560;7.778;2022-07-23T07:47:11;98677.91;;;23.94;68.76
74062;BME280;62416;47.560;7.778;2022-07-23T07:49:37;98667.78;;;24.01;68.29
74062;BME280;62416;47.560;7.778;2022-07-23T07:52:02;98678.69;;;24.14;68.04
74062;BME280;62416;47.560;7.778;2022-07-23T07:54:28;98680.72;;;24.26;69.32
74062;BME280;62416;47.560;7.778;2022-07-23T07:56:53;98679.03;;;24.38;68.15
74062;BME280;62416;47.560;7.778;2022-07-23T07:59:19;98679.97;;;24.05;70.08
74062;BME280;62416;47.560;7.778;2022-07-23T08:01:44;98673.69;;;24.05;70.41
74062;BME280;62416;47.560;7.778;2022-07-23T08:04:09;98664.50;;;23.79;70.87
74062;BME280;62416;47.560;7.778;2022-07-23T08:10:25;98669.03;;;24.05;68.89
74062;BME280;62416;47.560;7.778;2022-07-23T08:13:00;98658.97;;;23.99;70.81
74062;BME280;62416;47.560;7.778;2022-07-23T08:15:36;98658.56;;;23.89;68.63
74062;BME280;62416;47.560;7.778;2022-07-23T08:18:03;98656.91;;;23.81;68.42
74062;BME280;62416;47.560;7.778;2022-07-23T08:20:29;98652.44;;;24.00;67.93
74062;BME280;62416;47.560;7.778;2022-07-23T08:22:58;98656.03;;;23.94;67.86
74062;BME280;62416;47.560;7.778;2022-07-23T08:53:20;98748.50;;;26.50;64.18
74062;BME280;62416;47.560;7.778;2022-07-23T08:55:50;98744.06;;;26.30;65.00
74062;BME280;62416;47.560;7.778;2022-07-23T08:58:17;98737.97;;;26.10;65.25
74062;BME280;62416;47.560;7.778;2022-07-23T09:00:44;98736.88;;;25.93;65.20
74062;BME280;62416;47.560;7.778;2022-07-23T09:03:17;98749.78;;;26.10;64.82
74062;BME280;62416;47.560;7.778;2022-07-23T09:05:44;98737.66;;;26.18;64.89
74062;BME280;62416;47.560;7.778;2022-07-23T09:11:07;98734.19;;;26.29;64.63
74062;BME280;62416;47.560;7.778;2022-07-23T09:16:14;98726.72;;;26.36;63.48
74062;BME280;62416;47.560;7.778;2022-07-23T09:18:49;98729.72;;;26.28;63.68
74062;BME280;62416;47.560;7.778;2022-07-23T09:21:32;98718.31;;;26.31;63.74
74062;BME280;62416;47.560;7.778;2022-07-23T09:26:34;98726.22;;;26.58;63.72
74062;BME280;62416;47.560;7.778;2022-07-23T09:29:06;98729.28;;;26.68;64.22
74062;BME280;62416;47.560;7.778;2022-07-23T09:31:41;98724.63;;;26.99;62.57
74062;BME280;62416;47.560;7.778;2022-07-23T09:34:13;98721.22;;;26.55;63.94
74062;BME280;62416;47.560;7.778;2022-07-23T09:36:39;98713.97;;;26.90;61.45
74062;BME280;62416;47.560;7.778;2022-07-23T09:39:06;98723.72;;;27.05;61.22
74062;BME280;62416;47.560;7.778;2022-07-23T09:41:46;98732.84;;;27.17;61.00
74062;BME280;62416;47.560;7.778;2022-07-23T09:44:17;98724.38;;;27.30;60.81
74062;BME280;62416;47.560;7.778;2022-07-23T09:46:45;98722.94;;;27.28;59.37
74062;BME280;62416;47.560;7.778;2022-07-23T09:49:18;98723.03;;;27.21;60.20
74062;BME280;62416;47.560;7.778;2022-07-23T09:51:46;98731.03;;;27.11;58.42
74062;BME280;62416;47.560;7.778;2022-07-23T09:54:27;98732.72;;;26.93;59.21
74062;BME280;62416;47.560;7.778;2022-07-23T09:56:54;98742.34;;;26.84;60.97
74062;BME280;62416;47.560;7.778;2022-07-23T09:59:28;98733.44;;;27.01;59.35
74062;BME280;62416;47.560;7.778;2022-07-23T10:01:55;98736.69;;;26.98;60.78
74062;BME280;62416;47.560;7.778;2022-07-23T10:04:23;98732.94;;;27.10;61.53
74062;BME280;62416;47.560;7.778;2022-07-23T10:07:13;98740.53;;;27.38;63.54
74062;BME280;62416;47.560;7.778;2022-07-23T10:09:58;98738.06;;;27.60;59.57
74062;BME280;62416;47.560;7.778;2022-07-23T10:12:56;98737.06;;;27.43;58.01
74062;BME280;62416;47.560;7.778;2022-07-23T10:15:40;98738.84;;;27.37;57.83
74062;BME280;62416;47.560;7.778;2022-07-23T10:18:06;98746.22;;;27.25;57.47
74062;BME280;62416;47.560;7.778;2022-07-23T10:20:32;98744.56;;;27.36;59.67
74062;BME280;62416;47.560;7.778;2022-07-23T10:26:03;98747.81;;;27.44;59.20
74062;BME280;62416;47.560;7.778;2022-07-23T10:31:47;98744.06;;;27.27;57.18
74062;BME280;62416;47.560;7.778;2022-07-23T10:34:36;98739.50;;;27.09;58.68
74062;BME280;62416;47.560;7.778;2022-07-23T10:37:32;98742.56;;;27.66;57.88
74062;BME280;62416;47.560;7.778;2022-07-23T10:40:16;98745.28;;;27.96;57.10
74062;BME280;62416;47.560;7.778;2022-07-23T10:42:46;98743.69;;;28.00;57.30
74062;BME280;62416;47.560;7.778;2022-07-23T10:45:36;98748.72;;;28.03;55.80
74062;BME280;62416;47.560;7.778;2022-07-23T10:48:22;98741.53;;;28.14;54.98
74062;BME280;62416;47.560;7.778;2022-07-23T10:51:14;98741.19;;;28.11;55.48
74062;BME280;62416;47.560;7.778;2022-07-23T11:31:17;98736.50;;;28.23;54.41
74062;BME280;62416;47.560;7.778;2022-07-23T11:35:39;98726.03;;;27.96;54.50
74062;BME280;62416;47.560;7.778;2022-07-23T11:38:08;98730.31;;;28.04;56.38
74062;BME280;62416;47.560;7.778;2022-07-23T11:40:39;98719.06;;;28.06;54.76
74062;BME280;62416;47.560;7.778;2022-07-23T11:43:07;98719.66;;;28.08;53.66
74062;BME280;62416;47.560;7.778;2022-07-23T11:45:47;98719.41;;;28.09;52.88
74062;BME280;62416;47.560;7.778;2022-07-23T11:48:19;98721.94;;;28.11;52.65
74062;BME280;62416;47.560;7.778;2022-07-23T11:50:46;98725.97;;;28.20;54.66
74062;BME280;62416;47.560;7.778;2022-07-23T11:53:12;98722.16;;;28.21;52.78
74062;BME280;62416;47.560;7.778;2022-07-23T11:55:38;98721.56;;;28.19;53.28
74062;BME280;62416;47.560;7.778;2022-07-23T11:58:03;98719.41;;;28.21;53.47
74062;BME280;62416;47.560;7.778;2022-07-23T12:00:31;98723.00;;;28.33;52.70
74062;BME280;62416;47.560;7.778;2022-07-23T12:03:01;98728.34;;;28.28;53.94
74062;BME280;62416;47.560;7.778;2022-07-23T12:05:33;98721.66;;;28.47;54.11
74062;BME280;62416;47.560;7.778;2022-07-23T12:08:03;98718.25;;;28.57;55.08
74062;BME280;62416;47.560;7.778;2022-07-23T12:10:37;98715.84;;;28.61;54.58
74062;BME280;62416;47.560;7.778;2022-07-23T12:13:06;98714.88;;;28.67;52.75
74062;BME280;62416;47.560;7.778;2022-07-23T12:15:35;98706.03;;;28.65;53.03
74062;BME280;62416;47.560;7.778;2022-07-23T12:18:07;98707.13;;;28.64;52.83
74062;BME280;62416;47.560;7.778;2022-07-23T12:20:48;98707.38;;;28.62;53.40
74062;BME280;62416;47.560;7.778;2022-07-23T12:23:33;98713.72;;;28.63;53.56
74062;BME280;62416;47.560;7.778;2022-07-23T12:26:16;98698.75;;;28.87;52.00
74062;BME280;62416;47.560;7.778;2022-07-23T12:29:11;98699.16;;;28.79;53.20
74062;BME280;62416;47.560;7.778;2022-07-23T12:31:56;98696.91;;;28.76;53.11
74062;BME280;62416;47.560;7.778;2022-07-23T12:34:44;98702.47;;;28.81;52.75
74062;BME280;62416;47.560;7.778;2022-07-23T12:37:35;98692.22;;;28.76;54.51
74062;BME280;62416;47.560;7.778;2022-07-23T12:40:32;98705.09;;;28.88;54.53
74062;BME280;62416;47.560;7.778;2022-07-23T12:43:32;98700.03;;;28.68;54.35
74062;BME280;62416;47.560;7.778;2022-07-23T12:46:20;98693.81;;;28.61;53.47
